Time;durP1;ratioP1;P1;durP2;ratioP2;P2;SDS_P1;SDS_P2;PMS_P1;PMS_P2;Temp;Humidity;BMP_temperature;BMP_pressure;BME280_temperature;BME280_humidity;BME280_pressure;Samples;Min_cycle;Max_cycle;Signal;HPM_P1;HPM_P2
2023/05/12 00:02:08;;;;;;;3.63;2.25;;;;;;;;;;5047718;28;20044;-78
2023/05/12 00:04:34;;;;;;;3.75;2.58;;;;;;;;;;5034531;28;20111;-78
2023/05/12 00:07:00;;;;;;;2.40;2.20;;;;;;;;;;5032677;28;20064;-79
2023/05/12 00:09:25;;;;;;;3.47;2.30;;;;;;;;;;5046900;28;20068;-78
2023/05/12 00:11:51;;;;;;;2.63;2.10;;;;;;;;;;5042209;28;20043;-78
2023/05/12 00:14:16;;;;;;;2.13;1.83;;;;;;;;;;5036681;28;20094;-78
2023/05/12 00:16:42;;;;;;;3.85;2.10;;;;;;;;;;5019423;28;20129;-79
2023/05/12 00:19:07;;;;;;;2.97;2.20;;;;;;;;;;5049262;28;20115;-78
2023/05/12 00:21:33;;;;;;;4.18;2.13;;;;;;;;;;5028780;28;20033;-78
2023/05/12 00:23:58;;;;;;;2.35;2.10;;;;;;;;;;5017644;28;20037;-78
2023/05/12 00:26:23;;;;;;;5.70;2.25;;;;;;;;;;5005284;28;20042;-78
2023/05/12 00:28:49;;;;;;;2.13;1.80;;;;;;;;;;5023162;28;20036;-80
2023/05/12 00:31:14;;;;;;;2.20;1.77;;;;;;;;;;5048970;28;20041;-79
2023/05/12 00:33:40;;;;;;;2.50;1.83;;;;;;;;;;5057695;28;20528;-78
2023/05/12 00:36:06;;;;;;;1.58;1.48;;;;;;;;;;5039727;28;20555;-78
2023/05/12 00:38:33;;;;;;;1.98;1.77;;;;;;;;;;5049563;28;20036;-80
2023/05/12 00:40:58;;;;;;;2.08;1.80;;;;;;;;;;5034916;28;20467;-79
2023/05/12 00:43:24;;;;;;;2.45;1.70;;;;;;;;;;5021059;28;22260;-80
2023/05/12 00:45:49;;;;;;;1.70;1.50;;;;;;;;;;5038870;28;20521;-81
2023/05/12 00:48:15;;;;;;;1.73;1.30;;;;;;;;;;5026008;28;20040;-78
2023/05/12 00:50:41;;;;;;;2.00;1.90;;;;;;;;;;5030564;28;20108;-78
2023/05/12 00:53:06;;;;;;;2.70;1.90;;;;;;;;;;5022099;28;20041;-79
2023/05/12 00:55:32;;;;;;;2.33;2.13;;;;;;;;;;5013624;28;20044;-78
2023/05/12 00:57:58;;;;;;;2.28;2.08;;;;;;;;;;5045950;28;20052;-79
2023/05/12 01:00:24;;;;;;;3.70;2.67;;;;;;;;;;5040319;28;20489;-80
2023/05/12 01:02:49;;;;;;;2.38;2.17;;;;;;;;;;5058473;28;20040;-78
2023/05/12 01:05:14;;;;;;;2.75;2.22;;;;;;;;;;5042270;28;20037;-82
2023/05/12 01:07:41;;;;;;;2.00;1.80;;;;;;;;;;5052086;28;20036;-80
2023/05/12 01:10:20;;;;;;;3.05;2.35;;;;;;;;;;4992348;28;20045;-79
2023/05/12 01:12:45;;;;;;;1.95;1.83;;;;;;;;;;5029302;28;20050;-80
2023/05/12 01:15:11;;;;;;;2.28;1.88;;;;;;;;;;5031960;28;20033;-80
2023/05/12 01:17:41;;;;;;;2.15;1.95;;;;;;;;;;5040598;28;20103;-80
2023/05/12 01:20:10;;;;;;;2.42;2.05;;;;;;;;;;5044515;28;20086;-79
2023/05/12 01:22:36;;;;;;;3.10;1.70;;;;;;;;;;5002503;28;20046;-80
2023/05/12 01:25:08;;;;;;;1.17;1.10;;;;;;;;;;5044563;28;20678;-81
2023/05/12 01:27:37;;;;;;;3.08;1.92;;;;;;;;;;5037688;28;20485;-79
2023/05/12 01:30:04;;;;;;;1.90;1.50;;;;;;;;;;5057493;28;20048;-81
2023/05/12 01:32:30;;;;;;;1.30;1.20;;;;;;;;;;5044565;28;20734;-81
2023/05/12 01:34:55;;;;;;;2.85;1.80;;;;;;;;;;5027646;28;20037;-80
2023/05/12 01:37:21;;;;;;;4.30;2.22;;;;;;;;;;5048590;28;20122;-80
2023/05/12 01:39:46;;;;;;;2.42;1.58;;;;;;;;;;5032919;28;20063;-78
2023/05/12 01:42:12;;;;;;;2.17;1.98;;;;;;;;;;5037208;28;20127;-79
2023/05/12 01:44:38;;;;;;;2.47;1.90;;;;;;;;;;5059847;28;20480;-78
2023/05/12 01:47:03;;;;;;;2.40;1.70;;;;;;;;;;5048944;28;20200;-78
2023/05/12 01:49:29;;;;;;;1.48;1.38;;;;;;;;;;4994403;28;20059;-79
2023/05/12 01:51:54;;;;;;;1.83;1.73;;;;;;;;;;5042752;28;20119;-81
2023/05/12 01:54:20;;;;;;;1.67;1.58;;;;;;;;;;5050617;28;20036;-79
2023/05/12 01:56:45;;;;;;;1.67;1.58;;;;;;;;;;5052216;28;20095;-79
2023/05/12 01:59:11;;;;;;;1.15;1.02;;;;;;;;;;5048155;28;20039;-79
2023/05/12 02:01:36;;;;;;;1.48;1.20;;;;;;;;;;5044469;28;20048;-81
2023/05/12 02:04:03;;;;;;;1.17;1.10;;;;;;;;;;5010989;28;20668;-79
2023/05/12 02:06:30;;;;;;;1.63;1.52;;;;;;;;;;5041949;28;20036;-79
2023/05/12 02:08:55;;;;;;;2.17;1.90;;;;;;;;;;5056119;28;20043;-78
2023/05/12 02:11:21;;;;;;;2.80;2.30;;;;;;;;;;5050639;28;20040;-80
2023/05/12 02:13:46;;;;;;;2.65;2.45;;;;;;;;;;5044136;28;20047;-80
2023/05/12 02:16:12;;;;;;;3.38;2.50;;;;;;;;;;5041152;28;20040;-78
2023/05/12 02:18:37;;;;;;;2.58;2.20;;;;;;;;;;5034210;28;20036;-79
2023/05/12 02:21:03;;;;;;;2.03;1.83;;;;;;;;;;5040298;28;20043;-78
2023/05/12 02:23:28;;;;;;;2.70;2.40;;;;;;;;;;5053792;28;20044;-79
2023/05/12 02:25:54;;;;;;;3.25;2.20;;;;;;;;;;5043720;28;20154;-79
2023/05/12 02:28:19;;;;;;;2.40;2.17;;;;;;;;;;5047843;28;20047;-80
2023/05/12 02:30:47;;;;;;;2.10;1.88;;;;;;;;;;5041295;28;20129;-80
2023/05/12 02:33:17;;;;;;;3.85;2.33;;;;;;;;;;5002195;28;20058;-78
2023/05/12 02:35:43;;;;;;;2.55;2.08;;;;;;;;;;5050890;28;20032;-81
2023/05/12 02:38:09;;;;;;;2.65;2.40;;;;;;;;;;5043186;28;20035;-79
2023/05/12 02:40:34;;;;;;;2.00;1.75;;;;;;;;;;5026778;28;20116;-78
2023/05/12 02:43:00;;;;;;;3.03;2.03;;;;;;;;;;5027925;28;20045;-81
2023/05/12 02:45:25;;;;;;;3.35;2.10;;;;;;;;;;5016163;28;20052;-78
2023/05/12 02:47:51;;;;;;;2.17;1.95;;;;;;;;;;5057957;28;20095;-81
2023/05/12 02:50:16;;;;;;;3.13;2.15;;;;;;;;;;5052086;28;20033;-80
2023/05/12 02:52:42;;;;;;;2.13;1.92;;;;;;;;;;5042049;28;20043;-79
2023/05/12 02:55:07;;;;;;;4.40;2.20;;;;;;;;;;5055549;28;20036;-78
2023/05/12 02:57:33;;;;;;;2.17;1.95;;;;;;;;;;5057733;28;20039;-78
2023/05/12 02:59:59;;;;;;;2.28;2.03;;;;;;;;;;5031045;28;20038;-79
2023/05/12 03:02:25;;;;;;;2.65;2.13;;;;;;;;;;5010735;28;20620;-78
2023/05/12 03:04:50;;;;;;;2.15;2.05;;;;;;;;;;5019834;28;20135;-80
2023/05/12 03:07:15;;;;;;;1.83;1.63;;;;;;;;;;5032384;28;20117;-81
2023/05/12 03:09:41;;;;;;;2.50;2.25;;;;;;;;;;5026213;28;20052;-81
2023/05/12 03:12:06;;;;;;;1.60;1.50;;;;;;;;;;5045534;28;20086;-80
2023/05/12 03:14:32;;;;;;;4.30;2.60;;;;;;;;;;5032340;28;20421;-79
2023/05/12 03:16:57;;;;;;;2.20;2.00;;;;;;;;;;5043821;28;20463;-79
2023/05/12 03:19:23;;;;;;;3.03;2.40;;;;;;;;;;5049858;28;20123;-79
2023/05/12 03:21:48;;;;;;;3.03;2.47;;;;;;;;;;5051043;28;20037;-78
2023/05/12 03:24:13;;;;;;;2.35;2.15;;;;;;;;;;5042206;28;20099;-78
2023/05/12 03:26:39;;;;;;;2.72;2.40;;;;;;;;;;5032454;28;20047;-80
2023/05/12 03:29:05;;;;;;;2.63;2.40;;;;;;;;;;5041738;28;20037;-80
2023/05/12 03:31:30;;;;;;;3.88;3.10;;;;;;;;;;5044918;28;20559;-81
2023/05/12 03:33:56;;;;;;;2.88;2.50;;;;;;;;;;5050286;28;20044;-77
2023/05/12 03:36:21;;;;;;;5.35;3.45;;;;;;;;;;5056675;28;20032;-81
2023/05/12 03:38:46;;;;;;;3.97;2.60;;;;;;;;;;5046089;28;20037;-78
2023/05/12 03:41:12;;;;;;;2.70;2.50;;;;;;;;;;5047634;28;20050;-79
2023/05/12 03:43:37;;;;;;;2.75;2.30;;;;;;;;;;5042879;28;20068;-80
2023/05/12 03:46:03;;;;;;;2.15;1.85;;;;;;;;;;5053615;28;20044;-78
2023/05/12 03:48:28;;;;;;;1.95;1.77;;;;;;;;;;5045080;28;20087;-78
2023/05/12 03:50:54;;;;;;;4.43;3.38;;;;;;;;;;5045907;28;20039;-80
2023/05/12 03:53:19;;;;;;;2.60;2.17;;;;;;;;;;5047939;28;20577;-80
2023/05/12 03:55:44;;;;;;;3.53;3.00;;;;;;;;;;5025747;28;20033;-78
2023/05/12 03:58:10;;;;;;;2.92;2.47;;;;;;;;;;5035594;28;20032;-78
2023/05/12 04:00:35;;;;;;;2.22;2.00;;;;;;;;;;5047251;28;20028;-78
2023/05/12 04:03:00;;;;;;;3.17;2.65;;;;;;;;;;5049530;28;20047;-81
2023/05/12 04:05:26;;;;;;;4.07;3.05;;;;;;;;;;5050614;28;20061;-77
2023/05/12 04:07:51;;;;;;;4.07;3.63;;;;;;;;;;5056475;28;20039;-81
2023/05/12 04:10:17;;;;;;;4.22;3.15;;;;;;;;;;5006102;28;20444;-81
2023/05/12 04:12:42;;;;;;;4.13;3.70;;;;;;;;;;5041484;28;20044;-80
2023/05/12 04:15:08;;;;;;;3.88;2.95;;;;;;;;;;5050563;28;20036;-78
2023/05/12 04:17:33;;;;;;;2.88;2.47;;;;;;;;;;5037773;28;20441;-80
2023/05/12 04:19:59;;;;;;;3.20;2.80;;;;;;;;;;5036545;28;20052;-80
2023/05/12 04:22:25;;;;;;;4.05;3.63;;;;;;;;;;5048462;28;20047;-78
2023/05/12 04:24:50;;;;;;;5.05;3.58;;;;;;;;;;5030511;28;20915;-80
2023/05/12 04:27:15;;;;;;;3.08;2.60;;;;;;;;;;5043426;28;20032;-80
2023/05/12 04:29:41;;;;;;;3.83;2.97;;;;;;;;;;5031963;28;20064;-80
2023/05/12 04:32:06;;;;;;;3.03;2.38;;;;;;;;;;5023512;28;20074;-80
2023/05/12 04:34:32;;;;;;;2.60;2.40;;;;;;;;;;5019839;28;20036;-78
2023/05/12 04:36:57;;;;;;;2.20;2.00;;;;;;;;;;5046582;28;20044;-80
2023/05/12 04:39:23;;;;;;;2.80;2.50;;;;;;;;;;5030099;28;20654;-80
2023/05/12 04:41:48;;;;;;;2.20;2.00;;;;;;;;;;5051039;28;20048;-80
2023/05/12 04:44:14;;;;;;;2.92;2.50;;;;;;;;;;5041708;28;20036;-80
2023/05/12 04:46:40;;;;;;;2.65;2.00;;;;;;;;;;5050271;28;20583;-81
2023/05/12 04:49:06;;;;;;;3.25;2.40;;;;;;;;;;5047311;28;20098;-79
2023/05/12 04:51:32;;;;;;;3.40;3.10;;;;;;;;;;5040576;28;20108;-80
2023/05/12 04:53:57;;;;;;;3.47;2.58;;;;;;;;;;5034200;28;20567;-80
2023/05/12 04:56:23;;;;;;;3.95;2.97;;;;;;;;;;5047742;28;20144;-80
2023/05/12 04:58:48;;;;;;;4.00;2.72;;;;;;;;;;5026911;28;20064;-79
2023/05/12 05:01:14;;;;;;;3.30;2.97;;;;;;;;;;5031277;28;20032;-79
2023/05/12 05:03:39;;;;;;;4.10;2.95;;;;;;;;;;5051234;28;20052;-79
2023/05/12 05:06:05;;;;;;;7.93;4.32;;;;;;;;;;5036543;28;20443;-78
2023/05/12 05:08:30;;;;;;;6.68;3.92;;;;;;;;;;5030411;28;20122;-79
2023/05/12 05:10:56;;;;;;;4.32;3.25;;;;;;;;;;5040892;28;20043;-80
2023/05/12 05:13:22;;;;;;;4.70;3.40;;;;;;;;;;5036015;28;20525;-79
2023/05/12 05:15:51;;;;;;;5.05;3.70;;;;;;;;;;5043829;28;20025;-79
2023/05/12 05:18:17;;;;;;;5.20;3.72;;;;;;;;;;5044426;28;20028;-80
2023/05/12 05:20:42;;;;;;;4.65;3.60;;;;;;;;;;5014014;28;20378;-78
2023/05/12 05:23:08;;;;;;;7.75;4.65;;;;;;;;;;5058298;28;20047;-80
2023/05/12 05:25:34;;;;;;;18.20;7.95;;;;;;;;;;5054066;28;20033;-80
2023/05/12 05:27:59;;;;;;;30.17;11.93;;;;;;;;;;5018823;28;20037;-78
2023/05/12 05:30:25;;;;;;;9.13;4.25;;;;;;;;;;5039938;28;20044;-79
2023/05/12 05:32:50;;;;;;;2.78;2.25;;;;;;;;;;5052205;28;20134;-79
2023/05/12 05:35:15;;;;;;;6.47;3.30;;;;;;;;;;5023868;28;20028;-80
2023/05/12 05:37:41;;;;;;;12.35;4.50;;;;;;;;;;5036086;28;20071;-79
2023/05/12 05:40:08;;;;;;;5.95;4.22;;;;;;;;;;5054705;28;20044;-79
2023/05/12 05:42:33;;;;;;;5.22;3.90;;;;;;;;;;5050483;28;20024;-79
2023/05/12 05:44:58;;;;;;;5.18;3.70;;;;;;;;;;5051696;28;20033;-78
2023/05/12 05:47:24;;;;;;;8.73;5.15;;;;;;;;;;5047173;28;20047;-79
2023/05/12 05:49:49;;;;;;;18.08;4.60;;;;;;;;;;5025438;28;20045;-80
2023/05/12 05:52:15;;;;;;;12.27;4.70;;;;;;;;;;5048936;28;20110;-79
2023/05/12 05:54:40;;;;;;;3.38;2.33;;;;;;;;;;5037960;28;20848;-80
2023/05/12 05:57:05;;;;;;;8.52;4.75;;;;;;;;;;5056014;28;20052;-79
2023/05/12 05:59:31;;;;;;;5.65;4.03;;;;;;;;;;5050468;28;20692;-79
2023/05/12 06:01:57;;;;;;;4.97;4.05;;;;;;;;;;5046452;28;20037;-79
2023/05/12 06:04:22;;;;;;;23.80;5.72;;;;;;;;;;5020919;28;20061;-79
2023/05/12 06:06:48;;;;;;;6.53;3.75;;;;;;;;;;5043950;28;20575;-79
2023/05/12 06:09:14;;;;;;;9.07;4.22;;;;;;;;;;5050533;28;20454;-79
2023/05/12 06:11:40;;;;;;;9.48;4.50;;;;;;;;;;5045941;28;20119;-78
2023/05/12 06:14:05;;;;;;;22.20;5.30;;;;;;;;;;5045662;28;20119;-79
2023/05/12 06:16:30;;;;;;;15.13;4.05;;;;;;;;;;5045556;28;20136;-79
2023/05/12 06:18:56;;;;;;;5.28;4.22;;;;;;;;;;5038632;28;20485;-79
2023/05/12 06:21:21;;;;;;;4.22;3.78;;;;;;;;;;5032928;28;20035;-80
2023/05/12 06:23:47;;;;;;;6.50;4.03;;;;;;;;;;5042090;28;20067;-79
2023/05/12 06:26:15;;;;;;;6.03;4.68;;;;;;;;;;5045964;28;20039;-79
2023/05/12 06:28:40;;;;;;;4.45;3.33;;;;;;;;;;5029654;28;20041;-79
2023/05/12 06:31:07;;;;;;;3.58;3.05;;;;;;;;;;5016617;28;20436;-78
2023/05/12 06:33:33;;;;;;;4.97;3.70;;;;;;;;;;5055275;28;20039;-80
2023/05/12 06:35:58;;;;;;;4.10;3.70;;;;;;;;;;5051460;28;20051;-79
2023/05/12 06:38:24;;;;;;;4.45;3.78;;;;;;;;;;5055358;28;20044;-79
2023/05/12 06:40:49;;;;;;;4.82;4.00;;;;;;;;;;5057984;28;20496;-79
2023/05/12 06:43:14;;;;;;;5.65;4.20;;;;;;;;;;5049915;28;20028;-79
2023/05/12 06:45:40;;;;;;;6.68;4.55;;;;;;;;;;5030712;28;20060;-79
2023/05/12 06:48:05;;;;;;;6.40;3.90;;;;;;;;;;5058045;28;20559;-78
2023/05/12 06:50:31;;;;;;;2.85;2.47;;;;;;;;;;5053151;28;20209;-78
2023/05/12 06:52:56;;;;;;;6.25;4.53;;;;;;;;;;5040772;28;20043;-78
2023/05/12 06:55:22;;;;;;;6.53;4.80;;;;;;;;;;5042948;28;20051;-79
2023/05/12 06:57:50;;;;;;;6.15;4.53;;;;;;;;;;5053986;28;20024;-80
2023/05/12 07:00:16;;;;;;;5.55;4.88;;;;;;;;;;5030551;28;20131;-78
2023/05/12 07:02:41;;;;;;;6.07;4.63;;;;;;;;;;5050059;28;20234;-79
2023/05/12 07:05:07;;;;;;;5.97;4.60;;;;;;;;;;5043652;28;20036;-79
2023/05/12 07:07:32;;;;;;;5.82;4.75;;;;;;;;;;5055086;28;20040;-79
2023/05/12 07:09:58;;;;;;;6.10;4.65;;;;;;;;;;5057575;28;20060;-79
2023/05/12 07:12:23;;;;;;;6.68;4.40;;;;;;;;;;5050559;28;20040;-80
2023/05/12 07:14:49;;;;;;;5.28;4.70;;;;;;;;;;5032443;28;20510;-79
2023/05/12 07:17:14;;;;;;;2.65;2.00;;;;;;;;;;5045100;28;20044;-79
2023/05/12 07:19:39;;;;;;;3.45;3.15;;;;;;;;;;5025711;28;20055;-79
2023/05/12 07:22:05;;;;;;;5.20;4.53;;;;;;;;;;5056367;28;20055;-79
2023/05/12 07:24:30;;;;;;;3.03;2.58;;;;;;;;;;5044330;28;20039;-79
2023/05/12 07:26:56;;;;;;;7.45;4.85;;;;;;;;;;5040916;28;20796;-79
2023/05/12 07:29:22;;;;;;;5.93;3.67;;;;;;;;;;5027503;28;20601;-79
2023/05/12 07:31:47;;;;;;;7.03;4.53;;;;;;;;;;5045973;28;20039;-79
2023/05/12 07:34:13;;;;;;;5.75;5.07;;;;;;;;;;5056976;28;20040;-80
2023/05/12 07:36:39;;;;;;;3.53;2.83;;;;;;;;;;5055235;28;20362;-79
2023/05/12 07:39:04;;;;;;;5.22;3.42;;;;;;;;;;5044921;28;20032;-79
2023/05/12 07:41:30;;;;;;;6.05;4.28;;;;;;;;;;5040563;28;20595;-79
2023/05/12 07:43:55;;;;;;;4.72;3.55;;;;;;;;;;5048260;28;20065;-79
2023/05/12 07:46:21;;;;;;;8.45;5.25;;;;;;;;;;5044868;28;20462;-79
2023/05/12 07:48:46;;;;;;;6.40;5.55;;;;;;;;;;5057116;28;20113;-80
2023/05/12 07:51:11;;;;;;;6.05;5.35;;;;;;;;;;5056009;28;20604;-79
2023/05/12 07:53:37;;;;;;;6.80;5.32;;;;;;;;;;5061888;28;20145;-79
2023/05/12 07:56:02;;;;;;;5.65;4.00;;;;;;;;;;5015710;28;20036;-81
2023/05/12 07:58:28;;;;;;;6.60;5.85;;;;;;;;;;5026851;28;20079;-79
2023/05/12 08:00:53;;;;;;;9.20;6.07;;;;;;;;;;5036606;28;20154;-79
2023/05/12 08:03:19;;;;;;;7.95;5.95;;;;;;;;;;5043479;28;20520;-79
2023/05/12 08:05:44;;;;;;;8.13;6.03;;;;;;;;;;5028945;28;20568;-79
2023/05/12 08:08:15;;;;;;;7.00;6.20;;;;;;;;;;5013426;28;20034;-79
2023/05/12 08:10:41;;;;;;;7.88;6.28;;;;;;;;;;4998113;28;20209;-80
2023/05/12 08:13:06;;;;;;;8.18;6.78;;;;;;;;;;5016564;28;20030;-80
2023/05/12 08:15:32;;;;;;;6.68;6.00;;;;;;;;;;5015753;28;20625;-79
2023/05/12 08:17:57;;;;;;;7.80;6.32;;;;;;;;;;5034448;28;20075;-79
2023/05/12 08:20:23;;;;;;;9.02;6.30;;;;;;;;;;5050504;28;20051;-79
2023/05/12 08:22:49;;;;;;;7.22;6.03;;;;;;;;;;5046208;28;20059;-80
2023/05/12 08:25:15;;;;;;;9.57;6.13;;;;;;;;;;5028416;28;20045;-78
2023/05/12 08:27:40;;;;;;;7.38;6.10;;;;;;;;;;5054043;28;20040;-77
2023/05/12 08:30:07;;;;;;;7.68;6.72;;;;;;;;;;5041020;28;20512;-78
2023/05/12 08:32:32;;;;;;;10.48;6.38;;;;;;;;;;5028825;28;20040;-78
2023/05/12 08:34:59;;;;;;;6.47;5.85;;;;;;;;;;5011615;28;20594;-78
2023/05/12 08:37:25;;;;;;;7.53;6.00;;;;;;;;;;5002646;28;20495;-78
2023/05/12 08:39:50;;;;;;;6.63;6.03;;;;;;;;;;5039449;28;20722;-78
2023/05/12 08:42:42;;;;;;;9.63;6.47;;;;;;;;;;5038651;28;20033;-80
2023/05/12 08:45:09;;;;;;;8.18;7.25;;;;;;;;;;5010512;28;20041;-77
2023/05/12 08:47:36;;;;;;;7.38;6.40;;;;;;;;;;5014070;28;20403;-78
2023/05/12 08:50:03;;;;;;;4.57;4.18;;;;;;;;;;5021447;28;20094;-78
2023/05/12 08:52:31;;;;;;;8.60;6.40;;;;;;;;;;5036529;28;20417;-78
2023/05/12 08:54:57;;;;;;;7.70;6.53;;;;;;;;;;5032254;28;20039;-78
2023/05/12 08:57:23;;;;;;;8.63;6.45;;;;;;;;;;5043742;28;20447;-78
2023/05/12 08:59:50;;;;;;;6.53;5.93;;;;;;;;;;5035503;28;20047;-78
2023/05/12 09:02:17;;;;;;;7.00;5.63;;;;;;;;;;5035595;28;20048;-77
2023/05/12 09:04:42;;;;;;;7.90;6.22;;;;;;;;;;5018312;28;20529;-79
2023/05/12 09:07:09;;;;;;;9.25;5.97;;;;;;;;;;5048761;28;20036;-78
2023/05/12 09:09:37;;;;;;;7.13;4.40;;;;;;;;;;5043234;28;20040;-78
2023/05/12 09:12:05;;;;;;;7.57;6.25;;;;;;;;;;5044208;28;20041;-78
2023/05/12 09:14:34;;;;;;;6.55;5.22;;;;;;;;;;5045938;28;20047;-79
2023/05/12 09:17:02;;;;;;;8.00;6.20;;;;;;;;;;5026932;28;20032;-77
2023/05/12 09:19:28;;;;;;;8.02;5.65;;;;;;;;;;5036366;28;20817;-78
2023/05/12 09:21:54;;;;;;;5.00;4.15;;;;;;;;;;5029922;28;20112;-78
2023/05/12 09:24:19;;;;;;;6.18;5.38;;;;;;;;;;5025107;28;20044;-77
2023/05/12 09:26:50;;;;;;;6.28;5.03;;;;;;;;;;5037560;28;20481;-77
2023/05/12 09:29:15;;;;;;;6.70;6.00;;;;;;;;;;5013679;28;20525;-77
2023/05/12 09:31:53;;;;;;;6.30;5.70;;;;;;;;;;5010132;28;20076;-78
2023/05/12 09:34:25;;;;;;;6.25;5.65;;;;;;;;;;5024341;28;20055;-77
2023/05/12 09:36:58;;;;;;;6.78;5.18;;;;;;;;;;5027558;28;20040;-78
2023/05/12 09:39:24;;;;;;;6.43;5.18;;;;;;;;;;5033320;28;20032;-77
2023/05/12 09:41:51;;;;;;;8.85;5.65;;;;;;;;;;5014660;28;20412;-79
2023/05/12 09:44:17;;;;;;;6.50;4.80;;;;;;;;;;5048164;28;20548;-76
2023/05/12 09:46:43;;;;;;;5.07;4.57;;;;;;;;;;5052396;28;20082;-76
2023/05/12 09:49:09;;;;;;;6.22;4.82;;;;;;;;;;5047069;28;20127;-77
2023/05/12 09:51:34;;;;;;;5.88;4.75;;;;;;;;;;5047699;28;20120;-78
2023/05/12 09:54:00;;;;;;;6.03;4.03;;;;;;;;;;5009760;28;20045;-77
2023/05/12 09:56:30;;;;;;;5.15;4.07;;;;;;;;;;4989729;28;20648;-77
2023/05/12 09:58:56;;;;;;;6.13;3.92;;;;;;;;;;5033280;28;20667;-79
2023/05/12 10:01:22;;;;;;;5.53;4.68;;;;;;;;;;5018816;28;20057;-79
2023/05/12 10:03:51;;;;;;;5.07;4.30;;;;;;;;;;4991643;28;20169;-77
2023/05/12 10:06:36;;;;;;;4.97;3.92;;;;;;;;;;5038280;28;20150;-77
2023/05/12 10:09:20;;;;;;;5.05;4.10;;;;;;;;;;4972883;28;20050;-78
2023/05/12 10:11:46;;;;;;;7.15;4.78;;;;;;;;;;5012060;28;20045;-77
2023/05/12 10:14:12;;;;;;;5.70;4.97;;;;;;;;;;5018347;28;20049;-78
2023/05/12 10:16:40;;;;;;;6.50;4.85;;;;;;;;;;5026528;28;20167;-77
2023/05/12 10:19:06;;;;;;;4.90;4.32;;;;;;;;;;5022153;28;20072;-76
2023/05/12 10:21:32;;;;;;;5.82;4.50;;;;;;;;;;5028970;28;20118;-78
2023/05/12 10:23:58;;;;;;;5.40;4.47;;;;;;;;;;5030575;28;20041;-78
2023/05/12 10:26:24;;;;;;;5.78;4.82;;;;;;;;;;5014045;28;20453;-76
2023/05/12 10:28:51;;;;;;;7.30;5.00;;;;;;;;;;5030714;28;20037;-78
2023/05/12 10:31:18;;;;;;;5.47;4.32;;;;;;;;;;5024321;28;20131;-77
2023/05/12 10:33:54;;;;;;;6.57;4.80;;;;;;;;;;5000602;28;20041;-80
2023/05/12 10:36:20;;;;;;;5.15;4.63;;;;;;;;;;5016866;28;20107;-75
2023/05/12 10:38:51;;;;;;;5.32;4.30;;;;;;;;;;5019690;28;20136;-76
2023/05/12 10:41:28;;;;;;;6.95;4.82;;;;;;;;;;5024764;28;20052;-78
2023/05/12 10:43:53;;;;;;;6.05;4.25;;;;;;;;;;5052859;28;20032;-79
2023/05/12 10:46:21;;;;;;;5.07;4.57;;;;;;;;;;5026798;28;20048;-79
2023/05/12 10:49:06;;;;;;;5.00;4.07;;;;;;;;;;5033323;28;20060;-78
2023/05/12 10:51:53;;;;;;;4.78;4.05;;;;;;;;;;5034624;28;20693;-77
2023/05/12 10:54:21;;;;;;;5.15;4.65;;;;;;;;;;5026857;28;20037;-79
2023/05/12 10:56:47;;;;;;;4.45;4.05;;;;;;;;;;5002399;28;20573;-79
2023/05/12 10:59:12;;;;;;;4.00;3.70;;;;;;;;;;5016132;28;20049;-79
2023/05/12 11:02:00;;;;;;;4.25;3.78;;;;;;;;;;5025030;28;20818;-78
2023/05/12 11:04:56;;;;;;;4.63;3.70;;;;;;;;;;5023066;28;20048;-78
2023/05/12 11:07:25;;;;;;;5.43;3.80;;;;;;;;;;4978125;28;20082;-77
2023/05/12 11:09:52;;;;;;;4.95;4.00;;;;;;;;;;5015107;28;20414;-78
2023/05/12 11:12:18;;;;;;;5.03;4.00;;;;;;;;;;5004303;28;20160;-78
2023/05/12 11:14:45;;;;;;;4.07;3.67;;;;;;;;;;5038145;28;20497;-79
2023/05/12 11:17:11;;;;;;;6.13;3.67;;;;;;;;;;4990476;28;20041;-78
2023/05/12 11:19:38;;;;;;;7.75;3.78;;;;;;;;;;5012055;28;20039;-76
2023/05/12 11:22:06;;;;;;;4.13;3.65;;;;;;;;;;5042852;28;20284;-79
2023/05/12 11:24:32;;;;;;;4.22;3.35;;;;;;;;;;5054762;28;20033;-79
2023/05/12 11:26:57;;;;;;;4.10;3.65;;;;;;;;;;5030959;28;20045;-79
2023/05/12 11:29:22;;;;;;;4.07;3.30;;;;;;;;;;5034508;28;20764;-79
2023/05/12 11:31:51;;;;;;;5.60;3.72;;;;;;;;;;5027853;28;20025;-76
2023/05/12 11:34:22;;;;;;;5.53;3.33;;;;;;;;;;5031325;28;20040;-80
2023/05/12 11:36:48;;;;;;;;;;;;;;;;;;5030387;28;20914;-79
2023/05/12 11:39:19;;;;;;;4.18;3.50;;;;;;;;;;5033001;28;19917;-80
2023/05/12 11:41:45;;;;;;;3.90;3.50;;;;;;;;;;5031848;28;20029;-78
2023/05/12 11:44:14;;;;;;;4.13;3.72;;;;;;;;;;5032031;28;20022;-77
2023/05/12 11:46:40;;;;;;;4.18;3.22;;;;;;;;;;5031618;28;20035;-78
2023/05/12 11:49:11;;;;;;;4.25;3.67;;;;;;;;;;5030548;28;20108;-76
2023/05/12 11:51:42;;;;;;;7.53;3.35;;;;;;;;;;5029714;28;20021;-77
2023/05/12 11:54:08;;;;;;;5.70;3.50;;;;;;;;;;5029942;28;20484;-77
2023/05/12 11:56:33;;;;;;;5.15;3.70;;;;;;;;;;5033580;28;20020;-77
2023/05/12 11:58:59;;;;;;;4.03;3.65;;;;;;;;;;5033037;28;20025;-79
2023/05/12 12:01:25;;;;;;;3.92;3.22;;;;;;;;;;5027191;28;20030;-79
2023/05/12 12:03:52;;;;;;;6.78;3.45;;;;;;;;;;5029170;28;20112;-78
2023/05/12 12:06:20;;;;;;;4.00;3.17;;;;;;;;;;5029433;28;20072;-78
2023/05/12 12:08:56;;;;;;;4.25;3.30;;;;;;;;;;5022997;28;20068;-78
2023/05/12 12:11:25;;;;;;;3.30;3.10;;;;;;;;;;5030795;28;20183;-78
2023/05/12 12:13:55;;;;;;;4.38;3.25;;;;;;;;;;5024104;28;20014;-78
2023/05/12 12:16:30;;;;;;;5.97;3.17;;;;;;;;;;5026955;28;20657;-77
2023/05/12 12:18:56;;;;;;;3.53;3.22;;;;;;;;;;5034334;28;20036;-78
2023/05/12 12:21:23;;;;;;;3.70;3.28;;;;;;;;;;5025025;28;20033;-77
2023/05/12 12:23:51;;;;;;;5.35;3.30;;;;;;;;;;5036920;28;20038;-77
2023/05/12 12:26:20;;;;;;;4.10;3.30;;;;;;;;;;5029541;28;20388;-77
2023/05/12 12:28:46;;;;;;;3.20;2.92;;;;;;;;;;5031499;28;20052;-77
2023/05/12 12:31:12;;;;;;;4.30;3.33;;;;;;;;;;5037314;28;20507;-78
2023/05/12 12:33:38;;;;;;;6.18;3.00;;;;;;;;;;5035962;28;20104;-77
2023/05/12 12:36:04;;;;;;;5.45;3.45;;;;;;;;;;5032411;28;20104;-78
2023/05/12 12:38:30;;;;;;;3.63;3.28;;;;;;;;;;5034468;28;20424;-78
2023/05/12 12:40:55;;;;;;;3.97;3.25;;;;;;;;;;5020708;28;20061;-78
2023/05/12 12:43:21;;;;;;;4.70;3.00;;;;;;;;;;5034070;28;20060;-78
2023/05/12 12:45:46;;;;;;;4.65;3.35;;;;;;;;;;5036568;28;20018;-78
2023/05/12 12:48:12;;;;;;;3.15;2.85;;;;;;;;;;5031644;28;20029;-79
2023/05/12 12:50:38;;;;;;;3.78;3.10;;;;;;;;;;5036565;28;20736;-79
2023/05/12 12:53:04;;;;;;;4.03;3.20;;;;;;;;;;5037871;28;20021;-79
2023/05/12 12:55:30;;;;;;;5.55;3.40;;;;;;;;;;5034778;28;20047;-78
2023/05/12 12:57:57;;;;;;;3.20;2.95;;;;;;;;;;5027048;28;20367;-78
2023/05/12 13:00:23;;;;;;;5.03;3.47;;;;;;;;;;5037015;28;20472;-80
2023/05/12 13:02:50;;;;;;;5.18;3.00;;;;;;;;;;5036307;28;20071;-79
2023/05/12 13:05:15;;;;;;;4.93;3.00;;;;;;;;;;5048833;28;20098;-79
2023/05/12 13:07:41;;;;;;;3.60;3.10;;;;;;;;;;5031130;28;20829;-78
2023/05/12 13:10:08;;;;;;;5.97;3.20;;;;;;;;;;5036987;28;20024;-78
2023/05/12 13:12:33;;;;;;;3.90;3.03;;;;;;;;;;5029648;28;20018;-78
2023/05/12 13:14:59;;;;;;;16.02;4.95;;;;;;;;;;5026501;28;20035;-78
2023/05/12 13:17:26;;;;;;;5.85;3.20;;;;;;;;;;5047843;28;20401;-79
2023/05/12 13:19:51;;;;;;;7.35;3.28;;;;;;;;;;5050064;28;20029;-78
2023/05/12 13:22:17;;;;;;;9.32;3.55;;;;;;;;;;5033295;28;20052;-79
2023/05/12 13:24:42;;;;;;;6.07;3.00;;;;;;;;;;5048289;28;20027;-78
2023/05/12 13:27:08;;;;;;;3.28;2.97;;;;;;;;;;5030069;28;20390;-78
2023/05/12 13:29:35;;;;;;;3.28;2.97;;;;;;;;;;5035423;28;20025;-78
2023/05/12 13:32:00;;;;;;;3.65;3.10;;;;;;;;;;5025818;28;20025;-79
2023/05/12 13:34:26;;;;;;;3.20;2.90;;;;;;;;;;5036140;28;20551;-79
2023/05/12 13:36:51;;;;;;;5.95;3.28;;;;;;;;;;5035441;28;20044;-78
2023/05/12 13:39:17;;;;;;;4.03;3.30;;;;;;;;;;5035172;28;20374;-79
2023/05/12 13:41:42;;;;;;;3.63;3.30;;;;;;;;;;5027524;28;20055;-77
2023/05/12 13:44:08;;;;;;;7.97;3.38;;;;;;;;;;5038706;28;20021;-78
2023/05/12 13:46:33;;;;;;;9.32;3.35;;;;;;;;;;5049011;28;20021;-77
2023/05/12 13:48:59;;;;;;;3.42;3.17;;;;;;;;;;5053322;28;20068;-77
2023/05/12 13:51:25;;;;;;;4.38;3.33;;;;;;;;;;5052435;28;20265;-77
2023/05/12 13:53:51;;;;;;;4.35;3.08;;;;;;;;;;5037983;28;20024;-78
2023/05/12 13:56:16;;;;;;;3.72;3.10;;;;;;;;;;5038350;28;20037;-77
2023/05/12 13:58:42;;;;;;;3.30;3.10;;;;;;;;;;5033881;28;20021;-78
2023/05/12 14:01:08;;;;;;;4.57;3.28;;;;;;;;;;5043558;28;20040;-77
2023/05/12 14:03:33;;;;;;;3.78;2.97;;;;;;;;;;5043721;28;20346;-79
2023/05/12 14:06:00;;;;;;;3.28;2.70;;;;;;;;;;5057345;28;20096;-79
2023/05/12 14:08:25;;;;;;;4.63;3.10;;;;;;;;;;5048193;28;20523;-79
2023/05/12 14:10:51;;;;;;;3.65;3.25;;;;;;;;;;5049198;28;20033;-78
2023/05/12 14:13:16;;;;;;;3.30;3.00;;;;;;;;;;5036016;28;20014;-80
2023/05/12 14:15:42;;;;;;;6.88;3.45;;;;;;;;;;5030164;28;20034;-79
2023/05/12 14:18:07;;;;;;;4.05;3.10;;;;;;;;;;5042353;28;20021;-79
2023/05/12 14:20:33;;;;;;;4.80;3.33;;;;;;;;;;5042840;28;20184;-79
2023/05/12 14:22:58;;;;;;;4.65;3.47;;;;;;;;;;5043252;28;20036;-79
2023/05/12 14:25:24;;;;;;;3.47;3.17;;;;;;;;;;5041140;28;20033;-79
2023/05/12 14:27:49;;;;;;;3.97;3.28;;;;;;;;;;5037152;28;20052;-79
2023/05/12 14:30:15;;;;;;;3.13;2.92;;;;;;;;;;5033468;28;20025;-79
2023/05/12 14:32:41;;;;;;;4.13;3.03;;;;;;;;;;5040467;28;20026;-78
2023/05/12 14:35:08;;;;;;;4.03;3.50;;;;;;;;;;5043585;28;20457;-79
2023/05/12 14:37:33;;;;;;;3.22;2.95;;;;;;;;;;5037232;28;20359;-79
2023/05/12 14:39:59;;;;;;;6.72;3.53;;;;;;;;;;5032976;28;20059;-78